createdAt,value
2023-04-27T00:00:13.357Z,8.16
2023-04-27T00:02:42.628Z,8.22
2023-04-27T00:05:11.652Z,8.27
2023-04-27T00:07:39.277Z,8.35
2023-04-27T00:10:07.898Z,8.39
2023-04-27T00:12:35.415Z,8.40
2023-04-27T00:15:02.920Z,8.36
2023-04-27T00:17:31.017Z,8.19
2023-04-27T00:20:00.568Z,8.15
2023-04-27T00:22:28.051Z,8.13
2023-04-27T00:24:55.497Z,8.25
2023-04-27T00:27:22.986Z,8.29
2023-04-27T00:29:50.446Z,8.32
2023-04-27T00:32:17.912Z,8.26
2023-04-27T00:34:45.386Z,8.09
2023-04-27T00:37:14.208Z,8.09
2023-04-27T00:39:41.694Z,8.23
2023-04-27T00:42:11.453Z,8.30
2023-04-27T00:44:39.917Z,8.38
2023-04-27T00:47:07.704Z,8.39
2023-04-27T00:49:35.193Z,8.28
2023-04-27T00:52:03.347Z,8.41
2023-04-27T00:54:32.645Z,8.46
2023-04-27T00:57:00.220Z,8.29
2023-04-27T00:59:27.761Z,7.69
2023-04-27T01:01:56.031Z,7.30
2023-04-27T01:04:23.780Z,7.30
2023-04-27T01:06:51.692Z,7.41
2023-04-27T01:09:20.126Z,7.84
2023-04-27T01:11:48.964Z,7.96
2023-04-27T01:14:17.181Z,7.87
2023-04-27T01:16:46.246Z,8.03
2023-04-27T01:19:14.048Z,8.00
2023-04-27T01:21:41.693Z,8.08
2023-04-27T01:24:11.213Z,8.05
2023-04-27T01:26:38.795Z,8.07
2023-04-27T01:29:06.325Z,8.01
2023-04-27T01:31:33.934Z,8.09
2023-04-27T01:34:01.432Z,8.14
2023-04-27T01:36:28.919Z,8.18
2023-04-27T01:38:56.594Z,8.23
2023-04-27T01:41:25.441Z,8.23
2023-04-27T01:43:52.904Z,8.11
2023-04-27T01:46:20.605Z,8.06
2023-04-27T01:48:48.088Z,8.01
2023-04-27T01:51:15.967Z,8.00
2023-04-27T01:53:43.736Z,8.00
2023-04-27T01:56:11.222Z,8.03
2023-04-27T01:58:40.039Z,8.06
2023-04-27T02:01:07.486Z,8.02
2023-04-27T02:03:35.128Z,7.94
2023-04-27T02:06:02.810Z,7.93
2023-04-27T02:08:30.278Z,7.80
2023-04-27T02:10:57.730Z,7.50
2023-04-27T02:13:25.261Z,7.36
2023-04-27T02:15:55.943Z,7.34
2023-04-27T02:18:24.187Z,7.52
2023-04-27T02:20:51.670Z,7.61
2023-04-27T02:23:19.115Z,7.66
2023-04-27T02:25:46.984Z,7.60
2023-04-27T02:28:14.704Z,7.58
2023-04-27T02:30:42.590Z,7.40
2023-04-27T02:33:11.402Z,7.45
2023-04-27T02:35:38.862Z,7.43
2023-04-27T02:38:06.688Z,7.47
2023-04-27T02:40:34.493Z,7.47
2023-04-27T02:43:01.949Z,7.59
2023-04-27T02:45:29.659Z,7.59
2023-04-27T02:47:57.225Z,7.57
2023-04-27T02:50:26.150Z,7.45
2023-04-27T02:52:53.756Z,7.39
2023-04-27T02:55:21.460Z,7.39
2023-04-27T02:57:48.929Z,6.92
2023-04-27T03:00:17.101Z,7.06
2023-04-27T03:02:44.804Z,7.19
2023-04-27T03:05:12.874Z,7.31
2023-04-27T03:07:42.053Z,7.32
2023-04-27T03:10:10.222Z,7.20
2023-04-27T03:12:37.866Z,7.22
2023-04-27T03:15:05.924Z,7.13
2023-04-27T03:17:33.420Z,7.01
2023-04-27T03:20:01.222Z,6.89
2023-04-27T03:22:29.176Z,6.32
2023-04-27T03:24:57.968Z,6.61
2023-04-27T03:27:25.615Z,6.71
2023-04-27T03:29:53.729Z,6.58
2023-04-27T03:32:21.298Z,6.56
2023-04-27T03:34:48.847Z,6.51
2023-04-27T03:37:16.522Z,6.37
2023-04-27T03:39:44.918Z,6.33
2023-04-27T03:42:13.809Z,6.30
2023-04-27T03:44:41.289Z,6.24
2023-04-27T03:47:09.634Z,6.17
2023-04-27T03:49:37.291Z,6.09
2023-04-27T03:52:05.404Z,5.97
2023-04-27T03:54:33.037Z,6.05
2023-04-27T03:57:02.297Z,6.03
2023-04-27T03:59:31.298Z,5.86
2023-04-27T04:02:00.930Z,5.78
2023-04-27T04:04:29.093Z,5.85
2023-04-27T04:06:56.693Z,5.83
2023-04-27T04:09:24.237Z,5.81
2023-04-27T04:11:52.640Z,5.86
2023-04-27T04:14:20.106Z,5.68
2023-04-27T04:16:49.010Z,5.80
2023-04-27T04:19:16.723Z,5.56
2023-04-27T04:21:44.348Z,5.85
2023-04-27T04:24:11.828Z,6.08
2023-04-27T04:26:39.615Z,5.82
2023-04-27T04:29:08.373Z,6.14
2023-04-27T04:31:38.060Z,6.29
2023-04-27T04:34:06.897Z,6.49
2023-04-27T04:36:34.368Z,6.66
2023-04-27T04:39:01.829Z,6.69
2023-04-27T04:41:29.307Z,6.89
2023-04-27T04:43:56.774Z,7.07
2023-04-27T04:46:24.720Z,7.24
2023-04-27T04:48:54.590Z,7.38
2023-04-27T04:51:23.693Z,7.52
2023-04-27T04:53:51.162Z,7.65
2023-04-27T04:56:18.669Z,7.75
2023-04-27T04:58:46.242Z,7.82
2023-04-27T05:01:13.777Z,7.97
2023-04-27T05:03:41.404Z,8.03
2023-04-27T05:06:09.164Z,7.98
2023-04-27T05:08:37.958Z,8.36
2023-04-27T05:11:05.887Z,8.57
2023-04-27T05:13:33.338Z,8.71
2023-04-27T05:16:00.838Z,8.60
2023-04-27T05:18:28.321Z,8.94
2023-04-27T05:20:56.066Z,9.33
2023-04-27T05:23:23.595Z,9.65
2023-04-27T05:25:52.631Z,8.62
2023-04-27T05:28:20.735Z,8.76
2023-04-27T05:30:48.179Z,8.32
2023-04-27T05:33:16.026Z,8.09
2023-04-27T05:35:43.497Z,8.42
2023-04-27T05:38:10.984Z,8.93
2023-04-27T05:40:38.506Z,9.14
2023-04-27T05:43:07.313Z,9.59
2023-04-27T05:45:34.859Z,10.29
2023-04-27T05:48:02.398Z,10.67
2023-04-27T05:50:29.843Z,11.10
2023-04-27T05:52:57.271Z,11.12
2023-04-27T05:55:24.716Z,11.08
2023-04-27T05:58:04.610Z,11.20
2023-04-27T06:00:36.511Z,11.45
2023-04-27T06:03:04.211Z,11.72
2023-04-27T06:05:31.874Z,11.73
2023-04-27T06:07:59.355Z,12.39
2023-04-27T06:10:26.845Z,12.89
2023-04-27T06:12:54.354Z,11.85
2023-04-27T06:15:24.453Z,12.02
2023-04-27T06:17:54.159Z,12.28
2023-04-27T06:20:23.767Z,12.27
2023-04-27T06:22:51.861Z,12.61
2023-04-27T06:25:20.009Z,11.75
2023-04-27T06:27:48.028Z,11.30
2023-04-27T06:30:16.043Z,11.49
2023-04-27T06:32:44.066Z,11.48
2023-04-27T06:35:13.211Z,11.49
2023-04-27T06:37:40.658Z,11.73
2023-04-27T06:40:09.395Z,12.73
2023-04-27T06:42:36.872Z,12.77
2023-04-27T06:45:05.698Z,13.20
2023-04-27T06:47:33.153Z,13.05
2023-04-27T06:50:00.637Z,13.66
2023-04-27T06:52:29.489Z,14.12
2023-04-27T06:54:57.407Z,14.35
2023-04-27T06:57:24.867Z,15.01
2023-04-27T06:59:52.644Z,15.69
2023-04-27T07:02:20.386Z,16.14
2023-04-27T07:04:48.016Z,16.56
2023-04-27T07:07:15.497Z,17.11
2023-04-27T07:09:44.287Z,17.10
2023-04-27T07:12:11.930Z,17.41
2023-04-27T07:14:39.402Z,17.46
2023-04-27T07:17:06.907Z,17.85
2023-04-27T07:19:34.380Z,18.34
2023-04-27T07:22:01.886Z,18.47
2023-04-27T07:24:29.321Z,18.59
2023-04-27T07:26:59.381Z,18.69
2023-04-27T07:29:28.315Z,18.46
2023-04-27T07:31:56.689Z,18.24
2023-04-27T07:34:24.874Z,18.27
2023-04-27T07:36:54.071Z,18.48
2023-04-27T07:39:21.624Z,18.93
2023-04-27T07:41:50.002Z,19.38
2023-04-27T07:44:19.752Z,19.60
2023-04-27T07:46:48.859Z,19.81
2023-04-27T07:49:16.407Z,19.93
2023-04-27T07:51:43.917Z,20.19
2023-04-27T07:54:11.384Z,20.09
2023-04-27T07:56:41.670Z,20.49
2023-04-27T07:59:09.133Z,20.44
2023-04-27T08:01:38.016Z,20.66
2023-04-27T08:04:06.272Z,20.39
2023-04-27T08:06:34.622Z,20.54
2023-04-27T08:09:04.093Z,20.07
2023-04-27T08:11:31.813Z,19.84
2023-04-27T08:13:59.262Z,19.51
2023-04-27T08:16:26.859Z,19.10
2023-04-27T08:18:55.687Z,19.12
2023-04-27T08:21:23.181Z,18.80
2023-04-27T08:23:50.814Z,19.33
2023-04-27T08:26:18.327Z,19.70
2023-04-27T08:28:45.822Z,19.97
2023-04-27T08:31:13.353Z,20.18
2023-04-27T08:33:40.832Z,19.88
2023-04-27T08:36:10.389Z,20.15
2023-04-27T08:38:37.860Z,20.68
2023-04-27T08:41:20.383Z,20.95
2023-04-27T08:43:49.825Z,21.40
2023-04-27T08:46:20.142Z,22.00
2023-04-27T08:48:48.072Z,21.65
2023-04-27T08:51:17.723Z,21.80
2023-04-27T08:53:51.533Z,22.76
2023-04-27T08:56:19.310Z,23.05
2023-04-27T08:58:47.047Z,23.03
2023-04-27T09:01:14.542Z,23.72
2023-04-27T09:03:42.158Z,24.54
2023-04-27T09:06:10.066Z,24.92
2023-04-27T09:08:46.846Z,24.94
2023-04-27T09:11:15.068Z,25.72
2023-04-27T09:13:45.519Z,25.75
2023-04-27T09:16:14.145Z,25.27
2023-04-27T09:18:44.392Z,24.76
2023-04-27T09:21:11.853Z,24.95
2023-04-27T09:23:40.662Z,24.63
2023-04-27T09:26:09.558Z,24.70
2023-04-27T09:28:39.612Z,23.79
2023-04-27T09:31:09.076Z,24.36
2023-04-27T09:33:37.358Z,24.53
2023-04-27T09:36:07.023Z,25.17
2023-04-27T09:38:34.900Z,24.08
2023-04-27T09:41:03.386Z,23.21
2023-04-27T09:43:32.456Z,24.10
2023-04-27T09:46:00.052Z,20.99
2023-04-27T09:48:27.628Z,22.68
2023-04-27T09:50:55.186Z,24.96
2023-04-27T09:53:27.580Z,25.95
2023-04-27T09:56:09.926Z,26.78
2023-04-27T09:58:59.856Z,26.09
2023-04-27T10:01:36.525Z,26.26
2023-04-27T10:04:20.375Z,27.28
2023-04-27T10:07:00.644Z,26.23
2023-04-27T10:09:31.600Z,26.13
2023-04-27T10:12:15.446Z,25.63
2023-04-27T10:14:51.898Z,24.82
2023-04-27T10:17:20.441Z,23.40
2023-04-27T10:19:57.986Z,22.87
2023-04-27T10:22:39.110Z,22.68
2023-04-27T10:25:16.478Z,22.74
2023-04-27T10:27:44.042Z,22.99
2023-04-27T10:30:14.748Z,23.40
2023-04-27T10:32:52.489Z,23.61
2023-04-27T10:35:21.507Z,23.95
2023-04-27T10:37:49.238Z,24.42
2023-04-27T10:40:18.209Z,24.39
2023-04-27T10:42:46.327Z,24.23
2023-04-27T10:45:15.134Z,23.93
2023-04-27T10:47:45.079Z,23.34
2023-04-27T10:50:15.363Z,22.64
2023-04-27T10:52:43.202Z,22.35
2023-04-27T10:55:15.755Z,22.26
2023-04-27T10:57:47.951Z,23.40
2023-04-27T11:00:23.881Z,24.64
2023-04-27T11:02:51.910Z,25.34
2023-04-27T11:05:20.637Z,24.86
2023-04-27T11:07:48.488Z,23.76
2023-04-27T11:10:17.421Z,21.45
2023-04-27T11:12:44.934Z,19.91
2023-04-27T11:15:14.059Z,20.05
2023-04-27T11:17:43.013Z,21.02
2023-04-27T11:20:10.890Z,21.89
2023-04-27T11:22:46.519Z,21.98
2023-04-27T11:25:14.041Z,22.25
2023-04-27T11:27:42.569Z,22.23
2023-04-27T11:30:21.173Z,21.51
2023-04-27T11:32:50.658Z,19.87
2023-04-27T11:35:19.167Z,22.12
2023-04-27T11:37:58.042Z,24.11
2023-04-27T11:40:25.501Z,22.37
2023-04-27T11:42:58.098Z,23.20
2023-04-27T11:45:27.579Z,24.03
2023-04-27T11:47:58.893Z,25.49
2023-04-27T11:50:26.714Z,25.01
2023-04-27T11:52:54.276Z,24.00
2023-04-27T11:55:22.898Z,24.70
2023-04-27T11:57:50.403Z,22.60
2023-04-27T12:00:19.033Z,22.58
2023-04-27T12:02:46.605Z,23.07
2023-04-27T12:05:16.418Z,21.47
2023-04-27T12:07:44.122Z,22.66
2023-04-27T12:10:12.159Z,24.36
2023-04-27T12:12:39.712Z,24.82
2023-04-27T12:15:09.102Z,25.43
2023-04-27T12:17:37.188Z,26.46
2023-04-27T12:20:05.586Z,26.13
2023-04-27T12:22:34.411Z,21.02
2023-04-27T12:25:01.875Z,21.56
2023-04-27T12:27:29.331Z,22.17
2023-04-27T12:29:59.332Z,23.26
2023-04-27T12:32:27.845Z,24.98
2023-04-27T12:34:55.459Z,22.50
2023-04-27T12:37:24.869Z,19.30
2023-04-27T12:39:55.153Z,17.99
2023-04-27T12:42:24.115Z,20.43
2023-04-27T12:44:52.023Z,22.49
2023-04-27T12:47:40.610Z,23.52
2023-04-27T12:50:09.484Z,24.00
2023-04-27T12:52:37.009Z,24.67
2023-04-27T12:55:11.049Z,25.48
2023-04-27T12:57:45.695Z,22.36
2023-04-27T13:00:14.173Z,19.32
2023-04-27T13:02:43.170Z,18.87
2023-04-27T13:05:11.776Z,19.01
2023-04-27T13:07:39.215Z,19.14
2023-04-27T13:10:08.985Z,21.27
2023-04-27T13:12:36.481Z,21.55
2023-04-27T13:15:04.596Z,21.84
2023-04-27T13:17:32.126Z,20.01
2023-04-27T13:19:59.644Z,19.27
2023-04-27T13:22:27.126Z,19.44
2023-04-27T13:24:54.573Z,19.34
2023-04-27T13:27:25.186Z,18.85
2023-04-27T13:29:52.720Z,19.95
2023-04-27T13:32:20.262Z,21.95
2023-04-27T13:34:47.781Z,23.29
2023-04-27T13:37:15.440Z,23.48
2023-04-27T13:39:42.896Z,23.27
2023-04-27T13:42:10.415Z,21.29
2023-04-27T13:44:39.215Z,19.70
2023-04-27T13:47:07.903Z,20.30
2023-04-27T13:49:35.936Z,21.82
2023-04-27T13:52:03.448Z,22.71
2023-04-27T13:54:31.029Z,22.37
2023-04-27T13:56:58.545Z,23.27
2023-04-27T13:59:26.001Z,20.68
2023-04-27T14:01:55.377Z,18.78
2023-04-27T14:04:22.986Z,18.74
2023-04-27T14:06:50.491Z,20.78
2023-04-27T14:09:17.939Z,22.49
2023-04-27T14:11:55.762Z,22.06
2023-04-27T14:14:24.428Z,21.46
2023-04-27T14:16:52.032Z,20.56
2023-04-27T14:19:21.454Z,21.78
2023-04-27T14:21:50.648Z,22.75
2023-04-27T14:24:18.168Z,23.36
2023-04-27T14:26:47.554Z,23.96
2023-04-27T14:29:15.569Z,21.43
2023-04-27T14:31:43.400Z,20.83
2023-04-27T14:34:11.202Z,22.89
2023-04-27T14:36:40.122Z,24.11
2023-04-27T14:39:09.334Z,23.94
2023-04-27T14:41:37.474Z,24.71
2023-04-27T14:44:07.349Z,25.17
2023-04-27T14:46:35.397Z,21.53
2023-04-27T14:49:03.010Z,20.35
2023-04-27T14:51:32.342Z,18.96
2023-04-27T14:54:02.227Z,19.13
2023-04-27T14:56:29.680Z,18.09
2023-04-27T14:58:57.177Z,18.20
2023-04-27T15:01:24.642Z,18.11
2023-04-27T15:03:54.211Z,18.67
2023-04-27T15:06:22.226Z,20.04
2023-04-27T15:08:49.682Z,20.73
2023-04-27T15:11:18.532Z,20.06
2023-04-27T15:13:46.723Z,20.75
2023-04-27T15:16:14.222Z,21.18
2023-04-27T15:18:42.176Z,20.75
2023-04-27T15:21:09.754Z,21.21
2023-04-27T15:23:37.329Z,19.49
2023-04-27T15:26:05.179Z,18.92
2023-04-27T15:28:34.492Z,20.02
2023-04-27T15:31:02.029Z,19.83
2023-04-27T15:33:29.513Z,19.70
2023-04-27T15:35:58.917Z,19.82
2023-04-27T15:38:26.473Z,21.32
2023-04-27T15:40:53.948Z,20.58
2023-04-27T15:43:22.072Z,17.93
2023-04-27T15:45:51.515Z,18.15
2023-04-27T15:48:19.003Z,18.88
2023-04-27T15:50:48.256Z,19.70
2023-04-27T15:53:15.696Z,20.08
2023-04-27T15:55:43.239Z,20.11
2023-04-27T15:58:10.866Z,20.33
2023-04-27T16:00:38.486Z,20.57
2023-04-27T16:03:10.802Z,20.68
2023-04-27T16:05:38.674Z,21.00
2023-04-27T16:08:06.450Z,20.32
2023-04-27T16:10:34.027Z,20.31
2023-04-27T16:13:01.502Z,19.94
2023-04-27T16:15:28.979Z,19.86
2023-04-27T16:17:56.445Z,19.47
2023-04-27T16:20:28.826Z,20.02
2023-04-27T16:22:56.308Z,20.02
2023-04-27T16:25:23.772Z,20.17
2023-04-27T16:27:51.442Z,19.72
2023-04-27T16:30:19.319Z,20.08
2023-04-27T16:32:46.941Z,19.68
2023-04-27T16:35:14.410Z,19.59
2023-04-27T16:37:43.206Z,19.67
2023-04-27T16:40:11.555Z,19.49
2023-04-27T16:42:39.006Z,19.67
2023-04-27T16:45:09.872Z,19.61
2023-04-27T16:47:38.388Z,19.67
2023-04-27T16:50:06.598Z,19.62
2023-04-27T16:52:34.045Z,19.79
2023-04-27T16:55:02.864Z,19.76
2023-04-27T16:57:30.456Z,19.90
2023-04-27T16:59:57.970Z,19.98
2023-04-27T17:02:26.103Z,19.97
2023-04-27T17:04:53.792Z,19.87
2023-04-27T17:07:21.328Z,19.74
2023-04-27T17:09:48.847Z,19.63
2023-04-27T17:12:17.636Z,19.64
2023-04-27T17:14:45.102Z,19.57
2023-04-27T17:17:12.654Z,19.77
2023-04-27T17:19:40.384Z,19.93
2023-04-27T17:22:10.663Z,19.97
2023-04-27T17:24:38.116Z,20.12
2023-04-27T17:27:05.573Z,20.19
2023-04-27T17:29:34.389Z,20.08
2023-04-27T17:32:01.831Z,20.19
2023-04-27T17:34:29.302Z,20.13
2023-04-27T17:36:56.783Z,19.96
2023-04-27T17:39:25.138Z,19.63
2023-04-27T17:41:52.727Z,19.38
2023-04-27T17:44:20.213Z,19.30
2023-04-27T17:46:50.169Z,19.24
2023-04-27T17:49:19.118Z,18.99
2023-04-27T17:51:47.441Z,18.67
2023-04-27T17:54:15.036Z,18.12
2023-04-27T17:56:42.769Z,17.90
2023-04-27T17:59:10.285Z,17.99
2023-04-27T18:01:37.778Z,17.99
2023-04-27T18:04:07.119Z,17.91
2023-04-27T18:06:34.822Z,17.55
2023-04-27T18:09:02.312Z,17.56
2023-04-27T18:11:30.526Z,17.59
2023-04-27T18:13:58.162Z,17.17
2023-04-27T18:16:25.979Z,16.72
2023-04-27T18:18:53.499Z,17.06
2023-04-27T18:21:22.349Z,17.06
2023-04-27T18:23:49.790Z,17.07
2023-04-27T18:26:17.433Z,16.95
2023-04-27T18:28:44.892Z,16.97
2023-04-27T18:31:15.706Z,16.90
2023-04-27T18:33:43.829Z,16.78
2023-04-27T18:36:11.426Z,16.69
2023-04-27T18:38:40.515Z,16.62
2023-04-27T18:41:08.276Z,16.47
2023-04-27T18:43:36.860Z,16.32
2023-04-27T18:46:04.841Z,16.05
2023-04-27T18:48:32.532Z,15.80
2023-04-27T18:51:00.264Z,15.55
2023-04-27T18:53:28.694Z,15.29
2023-04-27T18:55:57.554Z,15.08
2023-04-27T18:58:25.007Z,14.94
2023-04-27T19:00:52.521Z,14.76
2023-04-27T19:03:20.159Z,14.60
2023-04-27T19:05:47.804Z,14.42
2023-04-27T19:08:15.630Z,14.24
2023-04-27T19:10:43.108Z,14.10
2023-04-27T19:13:12.021Z,13.98
2023-04-27T19:15:40.101Z,13.94
2023-04-27T19:18:11.327Z,13.86
2023-04-27T19:20:39.245Z,13.73
2023-04-27T19:23:07.780Z,13.56
2023-04-27T19:25:35.393Z,13.37
2023-04-27T19:28:02.874Z,13.09
2023-04-27T19:30:31.752Z,12.93
2023-04-27T19:32:59.448Z,12.77
2023-04-27T19:35:27.448Z,12.62
2023-04-27T19:37:54.952Z,12.66
2023-04-27T19:40:22.492Z,12.56
2023-04-27T19:42:50.352Z,12.44
2023-04-27T19:45:18.024Z,12.36
2023-04-27T19:47:48.613Z,12.24
2023-04-27T19:50:16.913Z,12.09
2023-04-27T19:52:44.571Z,12.01
2023-04-27T19:55:12.134Z,11.94
2023-04-27T19:57:39.656Z,11.80
2023-04-27T20:00:10.026Z,11.62
2023-04-27T20:02:37.827Z,11.47
2023-04-27T20:05:07.763Z,11.49
2023-04-27T20:07:35.748Z,11.30
2023-04-27T20:10:04.377Z,11.07
2023-04-27T20:12:51.484Z,11.04
2023-04-27T20:15:19.352Z,11.12
2023-04-27T20:17:47.175Z,11.09
2023-04-27T20:20:16.011Z,10.99
2023-04-27T20:22:43.494Z,10.87
2023-04-27T20:25:13.990Z,10.77
2023-04-27T20:27:41.509Z,10.67
2023-04-27T20:30:10.018Z,10.62
2023-04-27T20:32:39.418Z,10.54
2023-04-27T20:35:10.285Z,10.41
2023-04-27T20:37:40.053Z,10.49
2023-04-27T20:40:11.909Z,10.54
2023-04-27T20:42:46.289Z,10.48
2023-04-27T20:45:13.786Z,10.51
2023-04-27T20:47:41.761Z,10.39
2023-04-27T20:50:09.676Z,10.42
2023-04-27T20:52:37.240Z,10.44
2023-04-27T20:55:06.698Z,10.47
2023-04-27T20:57:34.211Z,10.49
2023-04-27T21:00:01.864Z,10.52
2023-04-27T21:02:29.420Z,10.50
2023-04-27T21:04:57.007Z,10.54
2023-04-27T21:07:24.656Z,10.52
2023-04-27T21:09:52.384Z,10.51
2023-04-27T21:12:21.179Z,10.49
2023-04-27T21:14:48.617Z,10.47
2023-04-27T21:17:16.121Z,10.46
2023-04-27T21:19:43.608Z,10.46
2023-04-27T21:22:11.058Z,10.50
2023-04-27T21:24:38.557Z,10.47
2023-04-27T21:27:06.163Z,10.30
2023-04-27T21:29:36.501Z,10.26
2023-04-27T21:32:04.245Z,10.27
2023-04-27T21:34:31.721Z,10.19
2023-04-27T21:36:59.566Z,10.10
2023-04-27T21:39:27.057Z,10.06
2023-04-27T21:41:54.511Z,10.13
2023-04-27T21:44:21.989Z,10.09
2023-04-27T21:46:51.202Z,9.98
2023-04-27T21:49:19.026Z,9.98
2023-04-27T21:51:46.504Z,10.00
2023-04-27T21:54:14.265Z,10.00
2023-04-27T21:56:42.571Z,9.97
2023-04-27T21:59:10.031Z,9.85
2023-04-27T22:01:37.831Z,9.72
2023-04-27T22:04:06.972Z,9.60
2023-04-27T22:06:34.559Z,9.62
2023-04-27T22:09:02.487Z,9.52
2023-04-27T22:11:29.994Z,9.56
2023-04-27T22:13:57.507Z,9.58
2023-04-27T22:16:25.004Z,9.60
2023-04-27T22:18:53.809Z,9.65
2023-04-27T22:21:22.664Z,9.67
2023-04-27T22:23:50.402Z,9.80
2023-04-27T22:26:18.026Z,9.79
2023-04-27T22:28:45.527Z,9.82
2023-04-27T22:31:13.003Z,9.71
2023-04-27T22:33:40.700Z,9.72
2023-04-27T22:36:08.972Z,9.70
2023-04-27T22:38:37.884Z,9.71
2023-04-27T22:41:05.767Z,9.69
2023-04-27T22:43:33.234Z,9.70
2023-04-27T22:46:00.737Z,9.73
2023-04-27T22:48:28.304Z,9.80
2023-04-27T22:50:55.794Z,9.82
2023-04-27T22:53:23.273Z,9.82
2023-04-27T22:55:52.066Z,9.81
2023-04-27T22:58:19.508Z,9.83
2023-04-27T23:00:47.006Z,9.82
2023-04-27T23:03:14.635Z,9.88
2023-04-27T23:05:42.398Z,9.95
2023-04-27T23:08:09.877Z,9.95
2023-04-27T23:10:38.738Z,10.09
2023-04-27T23:13:11.277Z,10.21
2023-04-27T23:15:39.531Z,10.23
2023-04-27T23:18:07.142Z,10.23
2023-04-27T23:20:34.658Z,10.28
2023-04-27T23:23:02.207Z,10.36
2023-04-27T23:25:29.670Z,10.49
2023-04-27T23:27:57.131Z,10.63
2023-04-27T23:30:25.952Z,10.73
2023-04-27T23:32:53.519Z,10.82
2023-04-27T23:35:21.106Z,10.82
2023-04-27T23:37:48.666Z,10.96
2023-04-27T23:40:16.236Z,11.06
2023-04-27T23:42:43.726Z,10.90
2023-04-27T23:45:12.163Z,10.90
2023-04-27T23:47:41.404Z,11.02
2023-04-27T23:50:09.531Z,10.84
2023-04-27T23:52:37.168Z,10.81
2023-04-27T23:55:05.364Z,11.06
2023-04-27T23:57:32.850Z,11.09
